Time;durP1;ratioP1;P1;durP2;ratioP2;P2;SDS_P1;SDS_P2;PMS_P1;PMS_P2;Temp;Humidity;BMP_temperature;BMP_pressure;BME280_temperature;BME280_humidity;BME280_pressure;Samples;Min_cycle;Max_cycle;Signal;HPM_P1;HPM_P2
2022/03/02 00:01:57;;;;;;;13.70;7.67;;;4.20;99.90;;;;;;4960821;28;20424;-58
2022/03/02 00:04:22;;;;;;;9.33;6.50;;;4.20;99.90;;;;;;4960961;28;20424;-58
2022/03/02 00:06:48;;;;;;;7.20;5.57;;;4.20;99.90;;;;;;4946729;28;20435;-57
2022/03/02 00:09:14;;;;;;;11.20;6.97;;;4.20;99.90;;;;;;4962667;28;20184;-57
2022/03/02 00:11:39;;;;;;;15.03;7.33;;;4.20;99.90;;;;;;4963291;28;20614;-58
2022/03/02 00:14:05;;;;;;;7.00;6.20;;;4.30;99.90;;;;;;4964380;28;20516;-57
2022/03/02 00:16:35;;;;;;;7.83;6.20;;;4.30;99.90;;;;;;4962643;28;20247;-58
2022/03/02 00:19:02;;;;;;;13.30;7.10;;;4.20;99.90;;;;;;4960991;28;20447;-59
2022/03/02 00:21:28;;;;;;;7.93;6.30;;;4.20;99.90;;;;;;4961624;28;20920;-58
2022/03/02 00:23:54;;;;;;;10.90;6.40;;;4.20;99.90;;;;;;4963863;28;20988;-59
2022/03/02 00:26:20;;;;;;;11.00;8.13;;;4.20;99.90;;;;;;4963780;28;20282;-58
2022/03/02 00:28:45;;;;;;;10.27;7.27;;;4.20;99.90;;;;;;4960619;28;20208;-58
2022/03/02 00:31:11;;;;;;;10.00;6.97;;;4.20;99.90;;;;;;4960499;28;20191;-57
2022/03/02 00:33:37;;;;;;;8.30;7.07;;;4.20;99.90;;;;;;4962503;28;20235;-58
2022/03/02 00:36:04;;;;;;;11.20;6.87;;;4.20;99.90;;;;;;4963510;28;20195;-58
2022/03/02 00:38:29;;;;;;;11.80;6.80;;;4.20;99.90;;;;;;4963851;28;20430;-58
2022/03/02 00:40:56;;;;;;;13.00;7.70;;;4.10;99.90;;;;;;4967504;28;20427;-58
2022/03/02 00:43:21;;;;;;;10.30;7.10;;;4.20;99.90;;;;;;4967589;28;20211;-58
2022/03/02 00:45:47;;;;;;;10.90;7.93;;;4.10;99.90;;;;;;4964385;28;20535;-58
2022/03/02 00:48:13;;;;;;;13.33;8.63;;;4.10;99.90;;;;;;4964156;28;20187;-58
2022/03/02 00:50:39;;;;;;;10.23;8.10;;;4.10;99.90;;;;;;4966564;28;20267;-58
2022/03/02 00:53:07;;;;;;;11.70;6.77;;;4.10;99.90;;;;;;4967719;28;20466;-57
2022/03/02 00:55:33;;;;;;;11.10;7.00;;;4.10;99.90;;;;;;4965859;28;20497;-57
2022/03/02 00:57:59;;;;;;;13.30;7.80;;;4.10;99.90;;;;;;4963945;28;20452;-57
2022/03/02 01:00:26;;;;;;;8.03;6.83;;;4.10;99.90;;;;;;4964613;28;20423;-57
2022/03/02 01:02:51;;;;;;;17.40;8.00;;;4.10;99.90;;;;;;4967302;28;20415;-57
2022/03/02 01:05:17;;;;;;;11.83;7.57;;;4.10;99.90;;;;;;4965817;28;20833;-57
2022/03/02 01:07:43;;;;;;;11.27;8.17;;;4.00;99.90;;;;;;4964507;28;20721;-57
2022/03/02 01:10:09;;;;;;;13.23;7.33;;;4.00;99.90;;;;;;4967033;28;20226;-57
2022/03/02 01:12:35;;;;;;;13.87;8.00;;;4.00;99.90;;;;;;4965296;28;20187;-58
2022/03/02 01:15:00;;;;;;;13.40;7.20;;;4.00;99.90;;;;;;4963763;28;20416;-57
2022/03/02 01:17:26;;;;;;;12.17;8.30;;;4.00;99.90;;;;;;4964216;28;20215;-58
2022/03/02 01:19:52;;;;;;;10.37;7.73;;;3.90;99.90;;;;;;4949713;28;20547;-58
2022/03/02 01:22:18;;;;;;;13.80;9.00;;;3.90;99.90;;;;;;4967020;28;20180;-58
2022/03/02 01:24:45;;;;;;;14.40;7.83;;;3.90;99.90;;;;;;4963795;28;20702;-57
2022/03/02 01:27:11;;;;;;;11.57;8.07;;;3.90;99.90;;;;;;4963581;28;20420;-58
2022/03/02 01:29:37;;;;;;;14.70;8.40;;;3.90;99.90;;;;;;4965512;28;20420;-57
2022/03/02 01:32:08;;;;;;;9.77;7.33;;;3.90;99.90;;;;;;4966483;28;20467;-58
2022/03/02 01:34:34;;;;;;;12.13;7.90;;;3.80;99.90;;;;;;4947694;28;20431;-58
2022/03/02 01:37:00;;;;;;;10.17;7.27;;;3.80;99.90;;;;;;4963347;28;20494;-58
2022/03/02 01:39:25;;;;;;;17.60;9.10;;;3.80;99.90;;;;;;4971177;28;20186;-58
2022/03/02 01:41:52;;;;;;;17.47;8.77;;;3.90;99.90;;;;;;4963417;28;20651;-58
2022/03/02 01:44:18;;;;;;;9.50;7.37;;;3.80;99.90;;;;;;4963255;28;20184;-58
2022/03/02 01:46:44;;;;;;;13.93;8.93;;;3.80;99.90;;;;;;4963190;28;20503;-57
2022/03/02 01:49:10;;;;;;;14.47;8.43;;;3.80;99.90;;;;;;4963128;28;20188;-58
2022/03/02 01:51:35;;;;;;;15.57;9.50;;;3.80;99.90;;;;;;4964273;28;20907;-58
2022/03/02 01:54:01;;;;;;;22.00;9.27;;;3.80;99.90;;;;;;4966677;28;20760;-58
2022/03/02 01:56:27;;;;;;;17.80;10.37;;;3.70;99.90;;;;;;4965378;28;20199;-58
2022/03/02 01:58:53;;;;;;;15.50;9.23;;;3.70;99.90;;;;;;4963150;28;20515;-58
2022/03/02 02:01:19;;;;;;;13.80;9.07;;;3.70;99.90;;;;;;4962868;28;20499;-58
2022/03/02 02:03:44;;;;;;;16.40;9.37;;;3.70;99.90;;;;;;4966097;28;20208;-58
2022/03/02 02:06:10;;;;;;;20.70;9.47;;;3.70;99.90;;;;;;4966194;28;20234;-57
2022/03/02 02:08:36;;;;;;;10.53;7.90;;;3.60;99.90;;;;;;4965351;28;20243;-57
2022/03/02 02:11:02;;;;;;;17.47;9.13;;;3.70;99.90;;;;;;4945381;29;20685;-57
2022/03/02 02:13:34;;;;;;;13.87;8.97;;;3.60;99.90;;;;;;4963659;28;20189;-57
2022/03/02 02:16:00;;;;;;;13.97;8.13;;;3.60;99.90;;;;;;4965746;28;20407;-57
2022/03/02 02:18:26;;;;;;;8.77;7.87;;;3.60;99.90;;;;;;4963990;28;20423;-57
2022/03/02 02:20:51;;;;;;;10.40;7.40;;;3.60;99.90;;;;;;4962613;28;20740;-58
2022/03/02 02:23:17;;;;;;;10.47;6.93;;;3.60;99.90;;;;;;4962544;28;20180;-58
2022/03/02 02:25:43;;;;;;;9.97;7.40;;;3.60;99.90;;;;;;4965199;28;20184;-58
2022/03/02 02:28:10;;;;;;;13.23;8.50;;;3.60;99.90;;;;;;4965930;28;20234;-58
2022/03/02 02:30:36;;;;;;;13.77;9.50;;;3.60;99.90;;;;;;4963594;28;20214;-58
2022/03/02 02:33:02;;;;;;;13.53;9.20;;;3.60;99.90;;;;;;4960717;28;20464;-57
2022/03/02 02:35:28;;;;;;;10.90;7.93;;;3.60;99.90;;;;;;4963151;28;20433;-58
2022/03/02 02:37:57;;;;;;;15.73;9.10;;;3.50;99.90;;;;;;4965453;28;20536;-58
2022/03/02 02:40:22;;;;;;;13.30;7.40;;;3.30;99.90;;;;;;4965249;28;20416;-58
2022/03/02 02:42:49;;;;;;;12.57;9.10;;;3.30;99.90;;;;;;4965372;28;20529;-58
2022/03/02 02:45:24;;;;;;;12.40;8.20;;;3.30;99.90;;;;;;4965416;28;20231;-58
2022/03/02 02:47:54;;;;;;;12.57;8.53;;;3.30;99.90;;;;;;4962134;28;20428;-58
2022/03/02 02:50:33;;;;;;;9.57;7.10;;;3.30;99.90;;;;;;4962023;28;20423;-58
2022/03/02 02:53:02;;;;;;;11.37;8.57;;;3.30;99.90;;;;;;4965281;28;20423;-58
2022/03/02 02:55:29;;;;;;;11.70;7.63;;;3.30;98.60;;;;;;4964075;28;20789;-57
2022/03/02 02:57:56;;;;;;;9.80;6.70;;;3.40;99.90;;;;;;4961677;28;20456;-58
2022/03/02 03:00:26;;;;;;;9.20;7.10;;;3.20;99.90;;;;;;4961872;28;20923;-57
2022/03/02 03:02:53;;;;;;;9.37;7.87;;;3.20;99.90;;;;;;4968176;28;20420;-57
2022/03/02 03:05:22;;;;;;;9.00;6.27;;;3.20;99.90;;;;;;4961669;28;20778;-58
2022/03/02 03:07:48;;;;;;;8.07;7.23;;;3.20;99.90;;;;;;4970321;28;20442;-58
2022/03/02 03:10:16;;;;;;;9.77;6.57;;;3.20;99.90;;;;;;4964738;28;20430;-58
2022/03/02 03:12:45;;;;;;;11.73;7.90;;;3.20;99.90;;;;;;4965010;28;20446;-58
2022/03/02 03:15:12;;;;;;;8.20;7.00;;;3.20;99.90;;;;;;4965025;28;20415;-58
2022/03/02 03:17:38;;;;;;;8.20;6.80;;;3.20;99.90;;;;;;4962797;28;20455;-58
2022/03/02 03:20:08;;;;;;;8.63;7.47;;;3.20;96.80;;;;;;4961347;28;20534;-57
2022/03/02 03:22:34;;;;;;;12.20;8.67;;;3.20;85.40;;;;;;4962886;28;20408;-57
2022/03/02 03:24:59;;;;;;;10.50;8.33;;;3.20;81.80;;;;;;4964510;28;20423;-57
2022/03/02 03:27:26;;;;;;;12.07;6.77;;;3.20;78.60;;;;;;4964780;28;20654;-57
2022/03/02 03:29:51;;;;;;;8.57;7.53;;;3.20;78.70;;;;;;4964667;28;20190;-58
2022/03/02 03:32:17;;;;;;;10.83;7.53;;;3.20;79.10;;;;;;4964377;28;20458;-57
2022/03/02 03:34:43;;;;;;;9.80;8.13;;;3.20;76.90;;;;;;4964556;28;20601;-57
2022/03/02 03:37:09;;;;;;;10.00;7.50;;;3.20;77.50;;;;;;4963294;28;20283;-58
2022/03/02 03:39:35;;;;;;;9.47;8.00;;;3.20;62.20;;;;;;4968852;28;20190;-57
2022/03/02 03:42:01;;;;;;;14.70;7.20;;;3.20;59.10;;;;;;4961091;28;20180;-58
2022/03/02 03:44:26;;;;;;;15.43;8.23;;;3.20;53.80;;;;;;4962036;28;20419;-58
2022/03/02 03:46:52;;;;;;;9.00;7.53;;;3.10;50.20;;;;;;4964431;28;20176;-58
2022/03/02 03:49:18;;;;;;;11.23;7.93;;;3.10;41.30;;;;;;4964326;28;20192;-58
2022/03/02 03:51:43;;;;;;;11.00;7.70;;;3.00;49.20;;;;;;4961121;28;20268;-58
2022/03/02 03:54:10;;;;;;;6.97;6.07;;;3.10;48.00;;;;;;4959672;28;20195;-58
2022/03/02 03:56:36;;;;;;;15.23;7.73;;;3.10;47.70;;;;;;4970997;28;20187;-58
2022/03/02 03:59:02;;;;;;;11.07;7.57;;;3.10;49.50;;;;;;4964228;28;20752;-58
2022/03/02 04:01:28;;;;;;;10.50;6.60;;;3.00;50.90;;;;;;4963229;28;20415;-58
2022/03/02 04:03:54;;;;;;;9.30;6.60;;;3.10;41.50;;;;;;4960844;28;20580;-58
2022/03/02 04:06:20;;;;;;;13.00;8.03;;;3.00;36.10;;;;;;4960651;28;20188;-58
2022/03/02 04:08:46;;;;;;;8.10;6.60;;;3.00;27.10;;;;;;4965975;28;20193;-58
2022/03/02 04:11:12;;;;;;;11.90;6.63;;;2.90;26.70;;;;;;4960645;28;20519;-57
2022/03/02 04:13:38;;;;;;;7.70;6.50;;;2.90;22.90;;;;;;4962627;28;20432;-58
2022/03/02 04:16:04;;;;;;;7.13;6.43;;;2.90;16.20;;;;;;4958255;28;20451;-58
2022/03/02 04:18:31;;;;;;;7.77;6.33;;;3.00;18.30;;;;;;4960724;28;20199;-58
2022/03/02 04:20:58;;;;;;;10.50;7.20;;;2.90;26.20;;;;;;4960479;28;20177;-58
2022/03/02 04:23:24;;;;;;;8.70;6.40;;;2.90;28.60;;;;;;4961561;28;20436;-58
2022/03/02 04:25:49;;;;;;;10.67;7.13;;;2.90;23.00;;;;;;4963982;28;20442;-58
2022/03/02 04:28:15;;;;;;;12.10;6.87;;;2.80;16.30;;;;;;4964019;28;20590;-58
2022/03/02 04:30:41;;;;;;;8.53;6.20;;;2.70;13.50;;;;;;4961544;28;20192;-58
2022/03/02 04:33:07;;;;;;;6.33;5.37;;;2.60;1.90;;;;;;4960775;28;20228;-58
2022/03/02 04:35:33;;;;;;;9.63;7.57;;;2.70;1.00;;;;;;4969033;28;20188;-58
2022/03/02 04:37:59;;;;;;;10.40;7.37;;;2.70;1.00;;;;;;4973227;28;20689;-58
2022/03/02 04:40:25;;;;;;;6.67;6.03;;;2.70;1.00;;;;;;4978179;28;20450;-57
2022/03/02 04:42:50;;;;;;;8.80;5.50;;;2.60;1.00;;;;;;4963678;28;20266;-57
2022/03/02 04:45:16;;;;;;;8.10;6.93;;;2.60;10.30;;;;;;4971858;28;20200;-59
2022/03/02 04:47:42;;;;;;;8.43;7.53;;;2.60;5.80;;;;;;4970995;28;20188;-59
2022/03/02 04:50:10;;;;;;;7.87;6.60;;;2.80;10.00;;;;;;4971027;28;20443;-59
2022/03/02 04:52:36;;;;;;;12.70;6.57;;;2.80;24.50;;;;;;4971094;28;20439;-58
2022/03/02 04:55:07;;;;;;;7.53;6.20;;;2.90;33.00;;;;;;4953385;28;21067;-59
2022/03/02 04:57:48;;;;;;;16.77;7.20;;;3.00;35.90;;;;;;4963578;28;20210;-60
2022/03/02 05:00:23;;;;;;;12.20;6.50;;;2.90;34.00;;;;;;4967654;28;20419;-59
2022/03/02 05:02:49;;;;;;;9.07;6.60;;;2.90;41.30;;;;;;4973924;28;20816;-58
2022/03/02 05:05:17;;;;;;;11.03;7.47;;;2.90;41.50;;;;;;4970842;28;20985;-59
2022/03/02 05:07:44;;;;;;;12.20;7.90;;;2.90;42.50;;;;;;4970751;28;20445;-59
2022/03/02 05:10:12;;;;;;;9.87;6.40;;;3.00;44.20;;;;;;4970924;28;20447;-59
2022/03/02 05:12:39;;;;;;;13.23;8.30;;;3.00;45.60;;;;;;4970069;28;20454;-64
2022/03/02 05:15:06;;;;;;;8.80;6.70;;;3.10;57.10;;;;;;4964987;28;20634;-59
2022/03/02 05:17:32;;;;;;;12.17;7.47;;;3.10;54.60;;;;;;4967939;28;20550;-60
2022/03/02 05:19:58;;;;;;;10.60;7.70;;;3.10;61.20;;;;;;4973551;28;20826;-59
2022/03/02 05:22:23;;;;;;;10.57;6.73;;;3.00;56.90;;;;;;4962944;28;20286;-58
2022/03/02 05:24:50;;;;;;;14.07;7.93;;;3.10;63.30;;;;;;4965020;28;20185;-59
2022/03/02 05:27:15;;;;;;;10.97;7.80;;;3.10;62.30;;;;;;4963509;28;20188;-58
2022/03/02 05:29:41;;;;;;;10.73;7.03;;;3.10;79.10;;;;;;4965655;28;20451;-57
2022/03/02 05:32:07;;;;;;;9.03;7.67;;;3.10;82.00;;;;;;4967699;28;20227;-59
2022/03/02 05:34:33;;;;;;;11.60;7.30;;;3.20;73.10;;;;;;4974369;28;20635;-58
2022/03/02 05:36:58;;;;;;;11.00;6.57;;;3.20;65.20;;;;;;4974954;28;21095;-58
2022/03/02 05:39:24;;;;;;;7.23;6.60;;;3.30;63.30;;;;;;4957783;28;21018;-58
2022/03/02 05:41:50;;;;;;;16.67;8.43;;;3.30;76.40;;;;;;4977374;28;20221;-58
2022/03/02 05:44:16;;;;;;;13.70;8.20;;;3.30;80.00;;;;;;4974272;28;20559;-58
2022/03/02 05:46:42;;;;;;;8.00;7.07;;;3.30;91.00;;;;;;4974438;28;20443;-59
2022/03/02 05:49:08;;;;;;;11.10;7.67;;;3.30;96.20;;;;;;4974323;28;20199;-59
2022/03/02 05:51:35;;;;;;;10.13;7.63;;;3.40;93.00;;;;;;4974873;28;20188;-60
2022/03/02 05:54:03;;;;;;;12.23;8.00;;;3.30;99.90;;;;;;4974599;28;20431;-59
2022/03/02 05:56:30;;;;;;;8.97;7.23;;;3.30;99.90;;;;;;4972623;28;20858;-58
2022/03/02 05:58:55;;;;;;;13.20;7.40;;;3.40;99.90;;;;;;4973671;28;20435;-61
2022/03/02 06:01:21;;;;;;;14.70;8.40;;;3.40;99.90;;;;;;4975164;28;21186;-61
2022/03/02 06:03:49;;;;;;;8.30;6.33;;;3.50;99.90;;;;;;4971550;28;20184;-58
2022/03/02 06:06:15;;;;;;;10.43;6.20;;;3.50;99.90;;;;;;4948633;28;20234;-58
2022/03/02 06:08:41;;;;;;;11.93;7.67;;;3.50;99.90;;;;;;4962912;28;20939;-58
2022/03/02 06:11:07;;;;;;;16.53;7.80;;;3.50;99.90;;;;;;4962764;28;20419;-58
2022/03/02 06:13:34;;;;;;;7.03;6.43;;;3.60;99.90;;;;;;4964382;28;20420;-59
2022/03/02 06:16:00;;;;;;;12.77;7.40;;;3.60;99.90;;;;;;4965978;28;20187;-58
2022/03/02 06:18:27;;;;;;;13.77;6.87;;;3.60;99.90;;;;;;4965279;28;20945;-58
2022/03/02 06:20:54;;;;;;;16.67;8.63;;;3.60;99.90;;;;;;4953390;29;20786;-58
2022/03/02 06:23:20;;;;;;;8.70;7.10;;;3.60;99.90;;;;;;4962445;28;20510;-58
2022/03/02 06:25:46;;;;;;;9.63;7.37;;;3.70;99.90;;;;;;4965660;28;20977;-58
2022/03/02 06:28:12;;;;;;;10.03;7.23;;;3.70;99.90;;;;;;4965843;28;20515;-59
2022/03/02 06:30:38;;;;;;;12.93;7.87;;;3.80;99.90;;;;;;4963533;28;20666;-59
2022/03/02 06:33:03;;;;;;;14.20;7.43;;;3.80;99.90;;;;;;4962298;28;20519;-58
2022/03/02 06:35:29;;;;;;;10.17;7.37;;;3.80;99.90;;;;;;4963261;28;20253;-58
2022/03/02 06:37:55;;;;;;;13.10;7.50;;;3.80;99.90;;;;;;4965271;28;20318;-58
2022/03/02 06:40:21;;;;;;;9.90;8.13;;;3.80;99.90;;;;;;4965458;28;20614;-58
2022/03/02 06:43:04;;;;;;;19.83;7.07;;;3.90;99.90;;;;;;4965365;28;20462;-58
2022/03/02 06:45:53;;;;;;;11.17;8.83;;;3.90;99.90;;;;;;4946906;28;20194;-58
2022/03/02 06:48:25;;;;;;;12.73;7.60;;;3.90;99.90;;;;;;4961838;28;20475;-58
2022/03/02 06:50:53;;;;;;;9.43;7.10;;;3.90;99.90;;;;;;4965073;28;20480;-58
2022/03/02 06:53:29;;;;;;;12.80;7.73;;;3.90;99.90;;;;;;4965192;28;20419;-58
2022/03/02 06:55:55;;;;;;;12.30;7.53;;;4.00;99.90;;;;;;4966217;28;20457;-58
2022/03/02 06:58:21;;;;;;;8.87;7.00;;;4.20;99.90;;;;;;4965092;28;20502;-59
2022/03/02 07:00:52;;;;;;;10.80;6.80;;;4.20;99.90;;;;;;4965112;28;20175;-58
2022/03/02 07:03:19;;;;;;;9.67;6.80;;;4.30;99.90;;;;;;4965105;28;20457;-58
2022/03/02 07:05:46;;;;;;;11.50;7.90;;;4.30;99.90;;;;;;4961769;28;20412;-58
2022/03/02 07:08:13;;;;;;;10.50;7.43;;;4.40;99.90;;;;;;4965751;28;20418;-58
2022/03/02 07:10:39;;;;;;;11.60;7.70;;;4.30;99.90;;;;;;4962993;28;20451;-59
2022/03/02 07:13:06;;;;;;;12.53;7.10;;;4.40;99.90;;;;;;4960257;28;20458;-59
2022/03/02 07:15:33;;;;;;;8.20;6.63;;;4.50;99.90;;;;;;4962914;28;20192;-59
2022/03/02 07:18:02;;;;;;;8.00;7.10;;;4.60;99.90;;;;;;4964706;28;20533;-59
2022/03/02 07:20:28;;;;;;;10.23;7.87;;;4.60;99.90;;;;;;4963126;28;20417;-58
2022/03/02 07:22:56;;;;;;;11.67;7.27;;;4.70;99.90;;;;;;4961469;28;20503;-58
2022/03/02 07:25:24;;;;;;;9.53;7.33;;;4.70;99.90;;;;;;4961605;28;20435;-59
2022/03/02 07:27:50;;;;;;;12.07;7.90;;;;;;;;;;4964737;28;20423;-59
2022/03/02 07:30:17;;;;;;;10.97;7.57;;;;;;;;;;4964603;28;20827;-59
2022/03/02 07:32:45;;;;;;;9.00;6.87;;;;;;;;;;4961395;28;20947;-58
2022/03/02 07:35:11;;;;;;;12.30;6.80;;;4.80;99.90;;;;;;4961211;28;20519;-58
2022/03/02 07:37:38;;;;;;;10.87;7.20;;;4.90;99.90;;;;;;4947140;28;20484;-59
2022/03/02 07:40:05;;;;;;;7.67;6.17;;;4.80;99.90;;;;;;4966786;28;20416;-59
2022/03/02 07:42:32;;;;;;;11.80;6.33;;;4.80;99.90;;;;;;4968880;28;20462;-59
2022/03/02 07:44:58;;;;;;;8.53;7.10;;;4.90;99.90;;;;;;4951679;29;20436;-59
2022/03/02 07:47:24;;;;;;;12.30;7.67;;;4.90;99.90;;;;;;4961291;28;20442;-59
2022/03/02 07:49:50;;;;;;;9.33;6.90;;;;;;;;;;4963775;28;20454;-59
2022/03/02 07:52:17;;;;;;;8.13;7.33;;;;;;;;;;4964163;28;20809;-58
2022/03/02 07:54:44;;;;;;;7.43;6.77;;;5.00;99.90;;;;;;4961332;28;20423;-58
2022/03/02 07:57:13;;;;;;;9.80;6.53;;;5.50;99.90;;;;;;4960719;28;20859;-59
2022/03/02 07:59:41;;;;;;;20.70;8.27;;;;;;;;;;4962816;28;20428;-59
2022/03/02 08:02:09;;;;;;;8.53;6.30;;;;;;;;;;4964082;28;20452;-59
2022/03/02 08:04:38;;;;;;;8.60;7.47;;;;;;;;;;4962401;28;20886;-60
2022/03/02 08:07:05;;;;;;;9.50;7.90;;;;;;;;;;4960757;28;20416;-59
2022/03/02 08:09:34;;;;;;;11.47;6.50;;;6.30;99.90;;;;;;4961841;28;20427;-59
2022/03/02 08:12:01;;;;;;;7.50;6.77;;;6.80;99.90;;;;;;4946689;28;20467;-59
2022/03/02 08:14:27;;;;;;;10.00;7.03;;;7.40;99.90;;;;;;4945932;28;20781;-59
2022/03/02 08:16:54;;;;;;;10.03;7.17;;;7.80;99.90;;;;;;4960709;28;20817;-59
2022/03/02 08:19:20;;;;;;;11.77;7.07;;;8.10;99.90;;;;;;4960624;28;20424;-59
2022/03/02 08:21:57;;;;;;;10.50;6.93;;;8.50;99.90;;;;;;4963768;28;20411;-59
2022/03/02 08:24:26;;;;;;;7.23;6.50;;;8.60;99.90;;;;;;4964015;28;20542;-60
2022/03/02 08:26:54;;;;;;;9.63;6.23;;;8.50;99.90;;;;;;4960617;28;20423;-59
2022/03/02 08:29:20;;;;;;;8.00;7.20;;;8.40;99.90;;;;;;4960807;28;20431;-59
2022/03/02 08:31:48;;;;;;;10.70;6.00;;;8.60;99.90;;;;;;4963555;28;20419;-59
2022/03/02 08:34:14;;;;;;;10.50;7.30;;;8.60;99.90;;;;;;4963924;28;20433;-59
2022/03/02 08:36:42;;;;;;;9.80;6.13;;;;;;;;;;4961273;28;20985;-59
2022/03/02 08:39:09;;;;;;;7.97;6.30;;;;;;;;;;4966264;28;20482;-59
2022/03/02 08:41:35;;;;;;;8.70;6.40;;;;;;;;;;4962026;28;20427;-59
2022/03/02 08:44:02;;;;;;;10.17;7.60;;;8.50;99.90;;;;;;4943095;29;20502;-59
2022/03/02 08:46:28;;;;;;;6.30;5.70;;;8.50;99.90;;;;;;4961082;28;20499;-60
2022/03/02 08:48:54;;;;;;;6.80;6.03;;;;;;;;;;4946291;28;20431;-59
2022/03/02 08:51:21;;;;;;;8.60;6.27;;;;;;;;;;4963638;28;20462;-59
2022/03/02 08:53:49;;;;;;;7.93;6.20;;;;;;;;;;4950486;29;20428;-58
2022/03/02 08:56:15;;;;;;;9.00;5.57;;;;;;;;;;4960193;28;20482;-59
2022/03/02 08:58:42;;;;;;;11.50;6.27;;;;;;;;;;4962651;28;20475;-59
2022/03/02 09:01:11;;;;;;;5.93;5.33;;;8.50;99.90;;;;;;4964677;28;20431;-60
2022/03/02 09:03:37;;;;;;;6.53;5.93;;;;;;;;;;4965097;28;20423;-59
2022/03/02 09:06:04;;;;;;;6.67;5.97;;;;;;;;;;4946577;29;20432;-59
2022/03/02 09:08:33;;;;;;;8.40;6.37;;;;;;;;;;4954037;28;20516;-59
2022/03/02 09:10:59;;;;;;;6.30;5.70;;;;;;;;;;4963978;28;20420;-59
2022/03/02 09:13:26;;;;;;;6.90;5.57;;;;;;;;;;4964218;28;21021;-59
2022/03/02 09:15:52;;;;;;;11.33;6.40;;;;;;;;;;4967232;28;20450;-59
2022/03/02 09:18:18;;;;;;;6.20;5.67;;;9.70;99.90;;;;;;4967304;28;20458;-60
2022/03/02 09:20:44;;;;;;;7.23;6.07;;;;;;;;;;4964108;28;20921;-59
2022/03/02 09:23:10;;;;;;;8.13;6.17;;;8.90;99.90;;;;;;4963457;28;20177;-59
2022/03/02 09:25:40;;;;;;;7.27;5.53;;;8.80;99.90;;;;;;4965654;28;20423;-59
2022/03/02 09:28:10;;;;;;;7.80;6.20;;;9.30;99.90;;;;;;4967017;28;20187;-59
2022/03/02 09:30:37;;;;;;;9.07;6.00;;;9.30;99.90;;;;;;4965005;28;20411;-60
2022/03/02 09:33:03;;;;;;;6.50;5.87;;;9.70;99.90;;;;;;4963591;28;20464;-60
2022/03/02 09:35:31;;;;;;;5.60;5.17;;;10.00;99.90;;;;;;4964433;28;20932;-61
2022/03/02 09:37:56;;;;;;;7.37;5.90;;;10.30;99.90;;;;;;4966543;28;20466;-60
2022/03/02 09:40:25;;;;;;;8.03;6.23;;;10.40;99.90;;;;;;4966805;28;20831;-61
2022/03/02 09:42:59;;;;;;;8.90;6.47;;;10.20;99.90;;;;;;4966837;28;20652;-61
2022/03/02 09:45:27;;;;;;;5.93;4.97;;;10.30;99.90;;;;;;4966216;28;20423;-61
2022/03/02 09:47:56;;;;;;;6.10;5.30;;;10.20;99.90;;;;;;4945839;29;20435;-61
2022/03/02 09:50:23;;;;;;;5.77;5.37;;;10.40;99.90;;;;;;4946102;29;20934;-61
2022/03/02 09:52:51;;;;;;;7.60;4.93;;;10.30;99.90;;;;;;4966483;28;20435;-61
2022/03/02 09:55:21;;;;;;;5.40;4.90;;;10.40;99.90;;;;;;4966498;28;20431;-61
2022/03/02 09:57:52;;;;;;;5.20;4.80;;;10.80;99.90;;;;;;4970995;28;20467;-61
2022/03/02 10:00:19;;;;;;;5.43;4.77;;;11.20;99.90;;;;;;4963073;28;20778;-61
2022/03/02 10:02:47;;;;;;;4.03;3.73;;;11.10;99.90;;;;;;4966008;28;20427;-61
2022/03/02 10:05:27;;;;;;;7.83;6.33;;;11.10;99.90;;;;;;4966281;28;20493;-60
2022/03/02 10:07:55;;;;;;;7.23;5.07;;;11.00;99.90;;;;;;4964367;28;20427;-60
2022/03/02 10:10:23;;;;;;;6.07;5.47;;;11.40;99.90;;;;;;4966053;28;20430;-60
2022/03/02 10:12:54;;;;;;;5.77;5.30;;;11.80;99.90;;;;;;4965706;28;20427;-60
2022/03/02 10:15:19;;;;;;;6.93;5.63;;;12.10;99.90;;;;;;4966141;28;20427;-60
2022/03/02 10:17:52;;;;;;;5.67;5.27;;;12.10;99.90;;;;;;4962911;28;20478;-60
2022/03/02 10:20:21;;;;;;;6.27;5.77;;;11.70;99.90;;;;;;4962611;28;20181;-61
2022/03/02 10:22:56;;;;;;;7.67;5.43;;;11.80;99.90;;;;;;4965940;28;20407;-61
2022/03/02 10:25:35;;;;;;;6.63;6.03;;;12.00;99.90;;;;;;4965963;28;20469;-61
2022/03/02 10:28:06;;;;;;;9.73;5.47;;;12.30;99.90;;;;;;4967602;28;20410;-60
2022/03/02 10:30:42;;;;;;;6.63;5.47;;;12.50;99.90;;;;;;4964440;28;20893;-60
2022/03/02 10:33:23;;;;;;;5.30;4.80;;;12.70;99.90;;;;;;4962306;28;20467;-60
2022/03/02 10:36:08;;;;;;;6.07;5.47;;;12.90;99.90;;;;;;4956109;28;20510;-60
2022/03/02 10:39:00;;;;;;;7.47;6.10;;;13.00;99.90;;;;;;4965312;28;20463;-61
2022/03/02 10:41:28;;;;;;;5.87;5.47;;;13.10;1.40;;;;;;4965072;28;20425;-61
2022/03/02 10:44:00;;;;;;;6.20;5.60;;;13.20;1.40;;;;;;4962246;28;20427;-60
2022/03/02 10:46:26;;;;;;;6.63;5.97;;;13.20;1.00;;;;;;4962608;28;20427;-60
2022/03/02 10:49:02;;;;;;;6.43;5.20;;;13.00;1.00;;;;;;4964153;28;20475;-61
2022/03/02 10:51:30;;;;;;;10.77;5.40;;;12.90;1.00;;;;;;4964581;28;20414;-61
2022/03/02 10:53:57;;;;;;;6.27;5.67;;;12.60;99.90;;;;;;4961913;28;20420;-61
2022/03/02 10:56:26;;;;;;;6.90;6.33;;;12.60;99.90;;;;;;4944671;28;20511;-61
2022/03/02 10:58:54;;;;;;;5.70;4.93;;;13.20;1.00;;;;;;4965086;28;20915;-61
2022/03/02 11:01:20;;;;;;;5.87;5.27;;;13.20;1.00;;;;;;4964983;28;20533;-59
2022/03/02 11:03:47;;;;;;;11.10;6.70;;;13.10;1.00;;;;;;4944528;29;20421;-59
2022/03/02 11:06:14;;;;;;;5.27;4.97;;;12.90;1.00;;;;;;4961872;28;20420;-59
2022/03/02 11:08:42;;;;;;;8.30;6.30;;;12.60;99.90;;;;;;4966764;28;20897;-59
2022/03/02 11:11:09;;;;;;;7.60;5.53;;;12.00;1.00;;;;;;4961624;28;20424;-59
2022/03/02 11:13:36;;;;;;;6.67;6.07;;;12.30;99.90;;;;;;4963476;28;20420;-59
2022/03/02 11:16:03;;;;;;;7.20;6.00;;;12.00;99.90;;;;;;4964889;28;20925;-61
2022/03/02 11:18:36;;;;;;;6.67;5.93;;;11.50;99.90;;;;;;4946462;28;20570;-62
2022/03/02 11:21:11;;;;;;;8.20;6.37;;;11.40;99.90;;;;;;4961525;28;20478;-62
2022/03/02 11:23:52;;;;;;;9.33;5.80;;;11.50;99.90;;;;;;4962810;28;20420;-63
2022/03/02 11:26:24;;;;;;;6.50;5.90;;;11.30;99.90;;;;;;4964816;28;20813;-62
2022/03/02 11:29:01;;;;;;;5.77;5.30;;;11.30;99.90;;;;;;4965178;28;20442;-61
2022/03/02 11:31:31;;;;;;;10.23;5.43;;;11.90;99.90;;;;;;4964073;28;20425;-61
2022/03/02 11:34:10;;;;;;;9.43;6.30;;;12.80;1.00;;;;;;4961210;28;20546;-61
2022/03/02 11:36:38;;;;;;;6.50;5.10;;;14.00;1.00;;;;;;4963372;28;20419;-60
2022/03/02 11:39:06;;;;;;;6.50;5.67;;;14.40;1.00;;;;;;4952846;28;20520;-61
2022/03/02 11:41:38;;;;;;;11.73;5.57;;;14.80;1.00;;;;;;4963542;28;20947;-60
2022/03/02 11:44:24;;;;;;;5.97;5.37;;;16.00;1.00;;;;;;4961348;28;20499;-60
2022/03/02 11:46:50;;;;;;;6.97;6.27;;;17.40;1.00;;;;;;4964425;28;20418;-61
2022/03/02 11:49:16;;;;;;;6.47;5.50;;;18.30;1.00;;;;;;4963238;28;20944;-60
2022/03/02 11:51:41;;;;;;;5.80;5.30;;;18.20;1.00;;;;;;4961633;28;20180;-61
2022/03/02 11:54:09;;;;;;;5.73;5.27;;;18.50;1.00;;;;;;4961003;28;20463;-61
2022/03/02 11:56:35;;;;;;;9.17;6.23;;;18.60;1.00;;;;;;4945430;28;20582;-61
2022/03/02 11:59:03;;;;;;;5.53;5.03;;;18.80;1.00;;;;;;4964352;28;20415;-61
2022/03/02 12:01:48;;;;;;;6.23;5.73;;;18.00;1.00;;;;;;4963309;28;20206;-61
2022/03/02 12:04:14;;;;;;;5.57;5.07;;;17.10;1.00;;;;;;4960993;28;20412;-62
2022/03/02 12:06:51;;;;;;;7.60;6.17;;;16.00;1.00;;;;;;4963213;28;20473;-61
2022/03/02 12:09:25;;;;;;;6.97;6.27;;;15.50;1.00;;;;;;4962204;28;20460;-61
2022/03/02 12:11:51;;;;;;;11.70;6.30;;;15.10;1.00;;;;;;4946714;28;20434;-63
2022/03/02 12:14:17;;;;;;;6.53;5.93;;;14.70;1.00;;;;;;4964146;28;20435;-61
2022/03/02 12:16:51;;;;;;;7.17;6.30;;;14.20;1.00;;;;;;4961225;28;20239;-61
2022/03/02 12:19:22;;;;;;;5.90;5.40;;;14.30;1.00;;;;;;4943508;29;20527;-61
2022/03/02 12:21:49;;;;;;;6.30;5.70;;;13.80;1.00;;;;;;4964042;28;20407;-61
2022/03/02 12:24:27;;;;;;;5.87;5.43;;;13.70;1.00;;;;;;4963950;28;20411;-61
2022/03/02 12:27:00;;;;;;;6.23;5.63;;;13.40;1.00;;;;;;4964720;28;20415;-62
2022/03/02 12:29:26;;;;;;;6.03;5.63;;;12.80;1.00;;;;;;4963428;28;20470;-60
2022/03/02 12:32:15;;;;;;;7.20;6.53;;;13.50;1.00;;;;;;4964272;28;20810;-61
2022/03/02 12:34:47;;;;;;;6.67;5.73;;;14.00;1.00;;;;;;4961440;28;20649;-60
2022/03/02 12:37:15;;;;;;;7.83;5.57;;;14.60;1.00;;;;;;4969419;28;20553;-59
2022/03/02 12:39:41;;;;;;;6.97;6.30;;;14.10;1.00;;;;;;4972327;28;20514;-59
2022/03/02 12:42:09;;;;;;;8.03;5.80;;;14.00;1.00;;;;;;4964180;28;20938;-59
2022/03/02 12:44:47;;;;;;;6.90;5.77;;;14.00;1.00;;;;;;4966178;28;20428;-58
2022/03/02 12:47:17;;;;;;;10.40;6.27;;;14.10;1.00;;;;;;4951650;28;20775;-58
2022/03/02 12:49:44;;;;;;;6.03;5.27;;;13.30;1.00;;;;;;4964859;28;20936;-60
2022/03/02 12:52:11;;;;;;;6.30;5.70;;;13.90;1.00;;;;;;4964100;28;20479;-60
2022/03/02 12:54:42;;;;;;;6.33;5.73;;;13.60;1.00;;;;;;4967218;28;20923;-62
2022/03/02 12:57:09;;;;;;;23.23;10.67;;;14.20;1.00;;;;;;4967527;28;20461;-58
2022/03/02 12:59:36;;;;;;;19.67;9.30;;;14.80;1.00;;;;;;4965871;28;20441;-58
2022/03/02 13:02:05;;;;;;;7.00;6.27;;;14.90;1.00;;;;;;4964363;28;20419;-59